sensor_id;sensor_type;location;lat;lon;timestamp;P1;durP1;ratioP1;P2;durP2;ratioP2
8036;SDS011;4061;51.360;7.340;2023-07-31T00:01:35;4.90;;;2.45;;
8036;SDS011;4061;51.360;7.340;2023-07-31T00:04:02;6.38;;;2.45;;
8036;SDS011;4061;51.360;7.340;2023-07-31T00:06:29;6.50;;;2.20;;
8036;SDS011;4061;51.360;7.340;2023-07-31T00:08:56;8.98;;;2.55;;
8036;SDS011;4061;51.360;7.340;2023-07-31T00:11:23;3.53;;;2.20;;
8036;SDS011;4061;51.360;7.340;2023-07-31T00:13:50;4.82;;;1.95;;
8036;SDS011;4061;51.360;7.340;2023-07-31T00:16:19;4.93;;;2.03;;
8036;SDS011;4061;51.360;7.340;2023-07-31T00:18:46;5.10;;;2.10;;
8036;SDS011;4061;51.360;7.340;2023-07-31T00:21:13;11.63;;;2.15;;
8036;SDS011;4061;51.360;7.340;2023-07-31T00:23:39;8.65;;;2.15;;
8036;SDS011;4061;51.360;7.340;2023-07-31T00:26:06;6.00;;;2.72;;
8036;SDS011;4061;51.360;7.340;2023-07-31T00:28:33;5.85;;;2.15;;
8036;SDS011;4061;51.360;7.340;2023-07-31T00:31:00;5.00;;;2.22;;
8036;SDS011;4061;51.360;7.340;2023-07-31T00:33:29;2.45;;;1.55;;
8036;SDS011;4061;51.360;7.340;2023-07-31T00:35:56;4.65;;;2.20;;
8036;SDS011;4061;51.360;7.340;2023-07-31T00:38:23;5.57;;;1.98;;
8036;SDS011;4061;51.360;7.340;2023-07-31T00:40:50;4.07;;;1.95;;
8036;SDS011;4061;51.360;7.340;2023-07-31T00:43:17;6.00;;;2.28;;
8036;SDS011;4061;51.360;7.340;2023-07-31T00:45:44;7.65;;;2.20;;
8036;SDS011;4061;51.360;7.340;2023-07-31T00:48:11;3.85;;;2.08;;
8036;SDS011;4061;51.360;7.340;2023-07-31T00:50:40;9.85;;;2.28;;
8036;SDS011;4061;51.360;7.340;2023-07-31T00:53:07;6.43;;;2.30;;
8036;SDS011;4061;51.360;7.340;2023-07-31T00:55:35;8.90;;;2.40;;
8036;SDS011;4061;51.360;7.340;2023-07-31T00:58:02;6.35;;;2.88;;
8036;SDS011;4061;51.360;7.340;2023-07-31T01:00:29;8.27;;;2.28;;
8036;SDS011;4061;51.360;7.340;2023-07-31T01:02:56;8.07;;;2.25;;
8036;SDS011;4061;51.360;7.340;2023-07-31T01:05:24;12.13;;;1.98;;
8036;SDS011;4061;51.360;7.340;2023-07-31T01:07:55;6.55;;;2.58;;
8036;SDS011;4061;51.360;7.340;2023-07-31T01:10:23;7.60;;;2.45;;
8036;SDS011;4061;51.360;7.340;2023-07-31T01:12:51;5.80;;;1.90;;
8036;SDS011;4061;51.360;7.340;2023-07-31T01:15:20;2.25;;;1.70;;
8036;SDS011;4061;51.360;7.340;2023-07-31T01:17:47;3.25;;;2.55;;
8036;SDS011;4061;51.360;7.340;2023-07-31T01:20:16;9.48;;;2.08;;
8036;SDS011;4061;51.360;7.340;2023-07-31T01:22:53;4.70;;;1.70;;
8036;SDS011;4061;51.360;7.340;2023-07-31T01:25:28;10.57;;;2.42;;
8036;SDS011;4061;51.360;7.340;2023-07-31T01:28:01;4.25;;;2.28;;
8036;SDS011;4061;51.360;7.340;2023-07-31T01:30:31;6.13;;;2.30;;
8036;SDS011;4061;51.360;7.340;2023-07-31T01:33:00;3.40;;;2.83;;
8036;SDS011;4061;51.360;7.340;2023-07-31T01:35:31;9.50;;;2.35;;
8036;SDS011;4061;51.360;7.340;2023-07-31T01:37:58;2.53;;;1.80;;
8036;SDS011;4061;51.360;7.340;2023-07-31T01:40:25;6.20;;;1.98;;
8036;SDS011;4061;51.360;7.340;2023-07-31T01:42:52;9.43;;;1.88;;
8036;SDS011;4061;51.360;7.340;2023-07-31T01:45:21;7.93;;;2.08;;
8036;SDS011;4061;51.360;7.340;2023-07-31T01:47:48;6.68;;;2.03;;
8036;SDS011;4061;51.360;7.340;2023-07-31T01:50:15;5.75;;;2.13;;
8036;SDS011;4061;51.360;7.340;2023-07-31T01:52:42;8.40;;;1.85;;
8036;SDS011;4061;51.360;7.340;2023-07-31T01:55:09;7.28;;;2.88;;
8036;SDS011;4061;51.360;7.340;2023-07-31T01:57:36;7.85;;;2.30;;
8036;SDS011;4061;51.360;7.340;2023-07-31T02:00:04;4.93;;;2.42;;
8036;SDS011;4061;51.360;7.340;2023-07-31T02:02:32;7.22;;;1.83;;
8036;SDS011;4061;51.360;7.340;2023-07-31T02:04:59;5.25;;;2.00;;
8036;SDS011;4061;51.360;7.340;2023-07-31T02:07:26;8.60;;;2.17;;
8036;SDS011;4061;51.360;7.340;2023-07-31T02:09:54;11.32;;;2.58;;
8036;SDS011;4061;51.360;7.340;2023-07-31T02:12:21;5.88;;;1.88;;
8036;SDS011;4061;51.360;7.340;2023-07-31T02:14:48;7.20;;;2.33;;
8036;SDS011;4061;51.360;7.340;2023-07-31T02:17:15;5.85;;;2.40;;
8036;SDS011;4061;51.360;7.340;2023-07-31T02:19:43;4.38;;;1.77;;
8036;SDS011;4061;51.360;7.340;2023-07-31T02:22:10;7.75;;;2.55;;
8036;SDS011;4061;51.360;7.340;2023-07-31T02:24:37;6.20;;;2.00;;
8036;SDS011;4061;51.360;7.340;2023-07-31T02:27:05;4.47;;;2.00;;
8036;SDS011;4061;51.360;7.340;2023-07-31T02:29:32;4.65;;;2.38;;
8036;SDS011;4061;51.360;7.340;2023-07-31T02:31:59;8.40;;;2.45;;
8036;SDS011;4061;51.360;7.340;2023-07-31T02:34:26;4.93;;;2.25;;
8036;SDS011;4061;51.360;7.340;2023-07-31T02:36:54;8.35;;;2.10;;
8036;SDS011;4061;51.360;7.340;2023-07-31T02:39:21;11.07;;;2.67;;
8036;SDS011;4061;51.360;7.340;2023-07-31T02:41:48;5.68;;;1.75;;
8036;SDS011;4061;51.360;7.340;2023-07-31T02:44:15;12.48;;;3.45;;
8036;SDS011;4061;51.360;7.340;2023-07-31T02:46:42;5.72;;;1.98;;
8036;SDS011;4061;51.360;7.340;2023-07-31T02:49:09;10.55;;;2.13;;
8036;SDS011;4061;51.360;7.340;2023-07-31T02:51:36;8.45;;;1.77;;
8036;SDS011;4061;51.360;7.340;2023-07-31T02:54:05;9.15;;;2.25;;
8036;SDS011;4061;51.360;7.340;2023-07-31T02:56:32;7.85;;;2.00;;
8036;SDS011;4061;51.360;7.340;2023-07-31T02:58:59;4.63;;;1.92;;
8036;SDS011;4061;51.360;7.340;2023-07-31T03:01:26;8.65;;;2.60;;
8036;SDS011;4061;51.360;7.340;2023-07-31T03:03:53;12.93;;;2.58;;
8036;SDS011;4061;51.360;7.340;2023-07-31T03:06:20;6.30;;;2.70;;
8036;SDS011;4061;51.360;7.340;2023-07-31T03:08:47;4.10;;;1.92;;
8036;SDS011;4061;51.360;7.340;2023-07-31T03:11:15;9.75;;;2.13;;
8036;SDS011;4061;51.360;7.340;2023-07-31T03:13:42;5.47;;;1.73;;
8036;SDS011;4061;51.360;7.340;2023-07-31T03:16:09;9.63;;;2.70;;
8036;SDS011;4061;51.360;7.340;2023-07-31T03:18:36;6.93;;;2.13;;
8036;SDS011;4061;51.360;7.340;2023-07-31T03:21:03;3.85;;;1.92;;
8036;SDS011;4061;51.360;7.340;2023-07-31T03:23:30;7.05;;;2.38;;
8036;SDS011;4061;51.360;7.340;2023-07-31T03:25:58;4.43;;;2.08;;
8036;SDS011;4061;51.360;7.340;2023-07-31T03:28:26;6.72;;;3.08;;
8036;SDS011;4061;51.360;7.340;2023-07-31T03:30:53;6.68;;;2.00;;
8036;SDS011;4061;51.360;7.340;2023-07-31T03:33:21;5.22;;;2.10;;
8036;SDS011;4061;51.360;7.340;2023-07-31T03:35:48;6.65;;;1.60;;
8036;SDS011;4061;51.360;7.340;2023-07-31T03:38:15;6.80;;;2.05;;
8036;SDS011;4061;51.360;7.340;2023-07-31T03:40:42;8.00;;;2.22;;
8036;SDS011;4061;51.360;7.340;2023-07-31T03:43:09;4.47;;;1.73;;
8036;SDS011;4061;51.360;7.340;2023-07-31T03:45:37;8.70;;;2.35;;
8036;SDS011;4061;51.360;7.340;2023-07-31T03:48:04;6.60;;;2.10;;
8036;SDS011;4061;51.360;7.340;2023-07-31T03:50:32;5.10;;;2.17;;
8036;SDS011;4061;51.360;7.340;2023-07-31T03:52:59;8.10;;;2.33;;
8036;SDS011;4061;51.360;7.340;2023-07-31T03:55:26;9.23;;;2.33;;
8036;SDS011;4061;51.360;7.340;2023-07-31T03:57:54;7.75;;;2.15;;
8036;SDS011;4061;51.360;7.340;2023-07-31T04:00:21;9.35;;;2.05;;
8036;SDS011;4061;51.360;7.340;2023-07-31T04:02:49;8.25;;;2.20;;
8036;SDS011;4061;51.360;7.340;2023-07-31T04:05:16;7.63;;;2.42;;
8036;SDS011;4061;51.360;7.340;2023-07-31T04:07:43;8.70;;;2.60;;
8036;SDS011;4061;51.360;7.340;2023-07-31T04:10:10;8.60;;;2.30;;
8036;SDS011;4061;51.360;7.340;2023-07-31T04:12:37;6.45;;;2.13;;
8036;SDS011;4061;51.360;7.340;2023-07-31T04:15:05;5.70;;;2.22;;
8036;SDS011;4061;51.360;7.340;2023-07-31T04:17:32;8.30;;;2.42;;
8036;SDS011;4061;51.360;7.340;2023-07-31T04:20:00;9.55;;;2.10;;
8036;SDS011;4061;51.360;7.340;2023-07-31T04:22:28;3.78;;;2.33;;
8036;SDS011;4061;51.360;7.340;2023-07-31T04:24:55;3.00;;;2.38;;
8036;SDS011;4061;51.360;7.340;2023-07-31T04:27:22;8.32;;;2.03;;
8036;SDS011;4061;51.360;7.340;2023-07-31T04:29:49;5.93;;;2.03;;
8036;SDS011;4061;51.360;7.340;2023-07-31T04:32:16;6.68;;;1.85;;
8036;SDS011;4061;51.360;7.340;2023-07-31T04:34:45;13.10;;;2.45;;
8036;SDS011;4061;51.360;7.340;2023-07-31T04:37:13;8.00;;;2.20;;
8036;SDS011;4061;51.360;7.340;2023-07-31T04:39:40;4.10;;;2.25;;
8036;SDS011;4061;51.360;7.340;2023-07-31T04:42:07;4.68;;;1.92;;
8036;SDS011;4061;51.360;7.340;2023-07-31T04:44:34;8.48;;;2.70;;
8036;SDS011;4061;51.360;7.340;2023-07-31T04:47:02;5.90;;;2.30;;
8036;SDS011;4061;51.360;7.340;2023-07-31T04:49:29;7.72;;;2.42;;
8036;SDS011;4061;51.360;7.340;2023-07-31T04:51:56;9.02;;;2.80;;
8036;SDS011;4061;51.360;7.340;2023-07-31T04:54:24;5.47;;;2.33;;
8036;SDS011;4061;51.360;7.340;2023-07-31T04:56:51;3.00;;;2.28;;
8036;SDS011;4061;51.360;7.340;2023-07-31T04:59:18;6.13;;;2.08;;
8036;SDS011;4061;51.360;7.340;2023-07-31T05:01:45;5.05;;;2.20;;
8036;SDS011;4061;51.360;7.340;2023-07-31T05:04:13;8.25;;;2.40;;
8036;SDS011;4061;51.360;7.340;2023-07-31T05:06:40;5.38;;;2.35;;
8036;SDS011;4061;51.360;7.340;2023-07-31T05:09:07;7.55;;;2.22;;
8036;SDS011;4061;51.360;7.340;2023-07-31T05:11:36;4.72;;;2.88;;
8036;SDS011;4061;51.360;7.340;2023-07-31T05:14:05;10.68;;;2.65;;
8036;SDS011;4061;51.360;7.340;2023-07-31T05:16:32;10.90;;;3.03;;
8036;SDS011;4061;51.360;7.340;2023-07-31T05:18:59;8.77;;;2.92;;
8036;SDS011;4061;51.360;7.340;2023-07-31T05:21:26;9.18;;;2.63;;
8036;SDS011;4061;51.360;7.340;2023-07-31T05:23:53;7.47;;;2.38;;
8036;SDS011;4061;51.360;7.340;2023-07-31T05:26:20;5.60;;;2.80;;
8036;SDS011;4061;51.360;7.340;2023-07-31T05:28:49;7.10;;;2.95;;
8036;SDS011;4061;51.360;7.340;2023-07-31T05:31:16;5.63;;;2.63;;
8036;SDS011;4061;51.360;7.340;2023-07-31T05:33:43;8.95;;;2.72;;
8036;SDS011;4061;51.360;7.340;2023-07-31T05:36:10;4.38;;;2.42;;
8036;SDS011;4061;51.360;7.340;2023-07-31T05:38:37;3.53;;;2.67;;
8036;SDS011;4061;51.360;7.340;2023-07-31T05:41:04;6.05;;;3.20;;
8036;SDS011;4061;51.360;7.340;2023-07-31T05:43:31;6.53;;;2.85;;
8036;SDS011;4061;51.360;7.340;2023-07-31T05:46:00;8.10;;;2.90;;
8036;SDS011;4061;51.360;7.340;2023-07-31T05:48:27;8.73;;;3.17;;
8036;SDS011;4061;51.360;7.340;2023-07-31T05:50:54;10.85;;;2.78;;
8036;SDS011;4061;51.360;7.340;2023-07-31T05:53:21;4.97;;;2.42;;
8036;SDS011;4061;51.360;7.340;2023-07-31T05:55:48;3.67;;;2.65;;
8036;SDS011;4061;51.360;7.340;2023-07-31T05:58:15;5.30;;;2.47;;
8036;SDS011;4061;51.360;7.340;2023-07-31T06:00:42;6.13;;;2.95;;
8036;SDS011;4061;51.360;7.340;2023-07-31T06:03:11;7.10;;;2.75;;
8036;SDS011;4061;51.360;7.340;2023-07-31T06:05:38;6.68;;;2.90;;
8036;SDS011;4061;51.360;7.340;2023-07-31T06:08:05;4.78;;;2.40;;
8036;SDS011;4061;51.360;7.340;2023-07-31T06:10:32;7.15;;;3.08;;
8036;SDS011;4061;51.360;7.340;2023-07-31T06:12:59;4.32;;;2.38;;
8036;SDS011;4061;51.360;7.340;2023-07-31T06:15:26;5.25;;;2.47;;
8036;SDS011;4061;51.360;7.340;2023-07-31T06:17:53;12.25;;;2.55;;
8036;SDS011;4061;51.360;7.340;2023-07-31T06:20:22;8.07;;;2.58;;
8036;SDS011;4061;51.360;7.340;2023-07-31T06:22:49;5.55;;;2.67;;
8036;SDS011;4061;51.360;7.340;2023-07-31T06:25:16;7.88;;;2.45;;
8036;SDS011;4061;51.360;7.340;2023-07-31T06:27:43;5.13;;;2.67;;
8036;SDS011;4061;51.360;7.340;2023-07-31T06:30:11;8.38;;;2.33;;
8036;SDS011;4061;51.360;7.340;2023-07-31T06:32:38;5.22;;;2.05;;
8036;SDS011;4061;51.360;7.340;2023-07-31T06:35:06;3.58;;;2.70;;
8036;SDS011;4061;51.360;7.340;2023-07-31T06:37:35;4.72;;;2.70;;
8036;SDS011;4061;51.360;7.340;2023-07-31T06:40:02;3.78;;;2.13;;
8036;SDS011;4061;51.360;7.340;2023-07-31T06:42:30;8.32;;;2.72;;
8036;SDS011;4061;51.360;7.340;2023-07-31T06:44:57;4.40;;;2.22;;
8036;SDS011;4061;51.360;7.340;2023-07-31T06:47:24;5.32;;;2.50;;
8036;SDS011;4061;51.360;7.340;2023-07-31T06:49:51;6.50;;;2.88;;
8036;SDS011;4061;51.360;7.340;2023-07-31T06:52:18;4.07;;;1.90;;
8036;SDS011;4061;51.360;7.340;2023-07-31T06:57:16;9.65;;;2.35;;
8036;SDS011;4061;51.360;7.340;2023-07-31T06:59:43;2.88;;;2.00;;
8036;SDS011;4061;51.360;7.340;2023-07-31T07:02:10;7.35;;;1.95;;
8036;SDS011;4061;51.360;7.340;2023-07-31T07:04:37;2.75;;;1.92;;
8036;SDS011;4061;51.360;7.340;2023-07-31T07:07:04;1.80;;;1.67;;
8036;SDS011;4061;51.360;7.340;2023-07-31T07:09:32;8.57;;;2.75;;
8036;SDS011;4061;51.360;7.340;2023-07-31T07:11:59;6.97;;;2.20;;
8036;SDS011;4061;51.360;7.340;2023-07-31T07:14:27;3.10;;;2.03;;
8036;SDS011;4061;51.360;7.340;2023-07-31T07:16:54;4.65;;;2.47;;
8036;SDS011;4061;51.360;7.340;2023-07-31T07:19:21;3.65;;;1.90;;
8036;SDS011;4061;51.360;7.340;2023-07-31T07:21:48;9.05;;;2.05;;
8036;SDS011;4061;51.360;7.340;2023-07-31T07:24:15;3.83;;;1.70;;
8036;SDS011;4061;51.360;7.340;2023-07-31T07:26:42;3.60;;;2.30;;
8036;SDS011;4061;51.360;7.340;2023-07-31T07:29:09;5.57;;;2.38;;
8036;SDS011;4061;51.360;7.340;2023-07-31T07:31:38;6.72;;;2.53;;
8036;SDS011;4061;51.360;7.340;2023-07-31T07:34:05;5.40;;;2.70;;
8036;SDS011;4061;51.360;7.340;2023-07-31T07:36:32;3.88;;;1.85;;
8036;SDS011;4061;51.360;7.340;2023-07-31T07:38:59;4.95;;;2.17;;
8036;SDS011;4061;51.360;7.340;2023-07-31T07:41:26;2.30;;;2.03;;
8036;SDS011;4061;51.360;7.340;2023-07-31T07:43:53;4.63;;;2.28;;
8036;SDS011;4061;51.360;7.340;2023-07-31T07:46:20;6.90;;;2.40;;
8036;SDS011;4061;51.360;7.340;2023-07-31T07:48:49;3.63;;;2.17;;
8036;SDS011;4061;51.360;7.340;2023-07-31T07:51:16;6.15;;;2.75;;
8036;SDS011;4061;51.360;7.340;2023-07-31T07:53:43;3.10;;;2.30;;
8036;SDS011;4061;51.360;7.340;2023-07-31T07:56:10;5.55;;;2.58;;
8036;SDS011;4061;51.360;7.340;2023-07-31T07:58:37;5.55;;;2.00;;
8036;SDS011;4061;51.360;7.340;2023-07-31T08:01:04;5.72;;;1.98;;
8036;SDS011;4061;51.360;7.340;2023-07-31T08:03:31;2.58;;;2.05;;
8036;SDS011;4061;51.360;7.340;2023-07-31T08:06:00;6.45;;;2.33;;
8036;SDS011;4061;51.360;7.340;2023-07-31T08:08:27;5.65;;;2.45;;
8036;SDS011;4061;51.360;7.340;2023-07-31T08:10:54;7.35;;;2.42;;
8036;SDS011;4061;51.360;7.340;2023-07-31T08:13:22;5.32;;;1.73;;
8036;SDS011;4061;51.360;7.340;2023-07-31T08:15:49;7.57;;;2.22;;
8036;SDS011;4061;51.360;7.340;2023-07-31T08:18:16;4.88;;;2.30;;
8036;SDS011;4061;51.360;7.340;2023-07-31T08:20:43;5.50;;;2.13;;
8036;SDS011;4061;51.360;7.340;2023-07-31T08:23:11;2.58;;;1.50;;
8036;SDS011;4061;51.360;7.340;2023-07-31T08:25:38;3.88;;;2.00;;
8036;SDS011;4061;51.360;7.340;2023-07-31T08:28:05;3.60;;;2.13;;
8036;SDS011;4061;51.360;7.340;2023-07-31T08:30:33;2.85;;;1.50;;
8036;SDS011;4061;51.360;7.340;2023-07-31T08:33:00;3.13;;;1.80;;
8036;SDS011;4061;51.360;7.340;2023-07-31T08:35:27;4.80;;;1.70;;
8036;SDS011;4061;51.360;7.340;2023-07-31T08:37:54;4.22;;;1.50;;
8036;SDS011;4061;51.360;7.340;2023-07-31T08:40:23;7.25;;;1.52;;
8036;SDS011;4061;51.360;7.340;2023-07-31T08:42:52;1.70;;;1.17;;
8036;SDS011;4061;51.360;7.340;2023-07-31T08:45:21;1.40;;;1.30;;
8036;SDS011;4061;51.360;7.340;2023-07-31T08:47:49;4.50;;;1.60;;
8036;SDS011;4061;51.360;7.340;2023-07-31T08:50:17;1.55;;;1.30;;
8036;SDS011;4061;51.360;7.340;2023-07-31T08:52:45;4.60;;;1.40;;
8036;SDS011;4061;51.360;7.340;2023-07-31T08:55:13;2.38;;;1.35;;
8036;SDS011;4061;51.360;7.340;2023-07-31T08:57:42;1.38;;;1.27;;
8036;SDS011;4061;51.360;7.340;2023-07-31T09:00:10;1.40;;;1.20;;
8036;SDS011;4061;51.360;7.340;2023-07-31T09:02:38;1.55;;;1.08;;
8036;SDS011;4061;51.360;7.340;2023-07-31T09:05:06;1.55;;;0.90;;
8036;SDS011;4061;51.360;7.340;2023-07-31T09:07:33;1.65;;;1.55;;
8036;SDS011;4061;51.360;7.340;2023-07-31T09:10:00;1.02;;;1.02;;
8036;SDS011;4061;51.360;7.340;2023-07-31T09:12:28;1.65;;;1.02;;
8036;SDS011;4061;51.360;7.340;2023-07-31T09:14:56;1.40;;;1.10;;
8036;SDS011;4061;51.360;7.340;2023-07-31T09:17:29;1.88;;;1.20;;
8036;SDS011;4061;51.360;7.340;2023-07-31T09:19:57;2.22;;;1.48;;
8036;SDS011;4061;51.360;7.340;2023-07-31T09:22:33;3.28;;;1.50;;
8036;SDS011;4061;51.360;7.340;2023-07-31T09:25:05;4.60;;;1.70;;
8036;SDS011;4061;51.360;7.340;2023-07-31T09:27:45;1.80;;;1.70;;
8036;SDS011;4061;51.360;7.340;2023-07-31T09:30:14;3.85;;;1.77;;
8036;SDS011;4061;51.360;7.340;2023-07-31T09:32:42;3.78;;;1.73;;
8036;SDS011;4061;51.360;7.340;2023-07-31T09:35:13;1.77;;;1.08;;
8036;SDS011;4061;51.360;7.340;2023-07-31T09:37:40;1.90;;;1.70;;
8036;SDS011;4061;51.360;7.340;2023-07-31T09:40:07;5.43;;;1.50;;
8036;SDS011;4061;51.360;7.340;2023-07-31T09:42:35;2.65;;;1.42;;
8036;SDS011;4061;51.360;7.340;2023-07-31T09:45:08;1.67;;;1.10;;
8036;SDS011;4061;51.360;7.340;2023-07-31T09:47:37;2.00;;;1.30;;
8036;SDS011;4061;51.360;7.340;2023-07-31T09:50:06;3.58;;;1.65;;
8036;SDS011;4061;51.360;7.340;2023-07-31T09:52:34;1.30;;;1.20;;
8036;SDS011;4061;51.360;7.340;2023-07-31T09:55:01;1.20;;;1.02;;
8036;SDS011;4061;51.360;7.340;2023-07-31T09:57:28;2.67;;;1.40;;
8036;SDS011;4061;51.360;7.340;2023-07-31T09:59:56;3.78;;;1.33;;
8036;SDS011;4061;51.360;7.340;2023-07-31T10:02:23;2.70;;;0.90;;
8036;SDS011;4061;51.360;7.340;2023-07-31T10:04:52;1.15;;;1.10;;
8036;SDS011;4061;51.360;7.340;2023-07-31T10:07:24;0.70;;;0.70;;
8036;SDS011;4061;51.360;7.340;2023-07-31T10:09:52;1.30;;;1.20;;
8036;SDS011;4061;51.360;7.340;2023-07-31T10:12:20;1.67;;;0.82;;
8036;SDS011;4061;51.360;7.340;2023-07-31T10:14:49;2.15;;;0.70;;
8036;SDS011;4061;51.360;7.340;2023-07-31T10:17:17;4.40;;;0.80;;
8036;SDS011;4061;51.360;7.340;2023-07-31T10:19:44;0.80;;;0.70;;
8036;SDS011;4061;51.360;7.340;2023-07-31T10:22:14;1.15;;;0.60;;
8036;SDS011;4061;51.360;7.340;2023-07-31T10:24:43;0.47;;;0.45;;
8036;SDS011;4061;51.360;7.340;2023-07-31T10:27:11;1.38;;;0.82;;
8036;SDS011;4061;51.360;7.340;2023-07-31T10:29:38;1.65;;;0.68;;
8036;SDS011;4061;51.360;7.340;2023-07-31T10:32:07;1.45;;;0.47;;
8036;SDS011;4061;51.360;7.340;2023-07-31T10:34:35;2.90;;;0.60;;
8036;SDS011;4061;51.360;7.340;2023-07-31T10:37:23;2.15;;;0.50;;
8036;SDS011;4061;51.360;7.340;2023-07-31T10:40:00;0.60;;;0.60;;
8036;SDS011;4061;51.360;7.340;2023-07-31T10:42:28;0.70;;;0.70;;
8036;SDS011;4061;51.360;7.340;2023-07-31T10:44:56;1.40;;;0.70;;
8036;SDS011;4061;51.360;7.340;2023-07-31T10:47:24;0.73;;;0.52;;
8036;SDS011;4061;51.360;7.340;2023-07-31T10:49:51;0.70;;;0.70;;
8036;SDS011;4061;51.360;7.340;2023-07-31T10:52:19;1.38;;;0.70;;
8036;SDS011;4061;51.360;7.340;2023-07-31T10:54:49;1.63;;;0.90;;
8036;SDS011;4061;51.360;7.340;2023-07-31T10:57:20;2.55;;;0.70;;
8036;SDS011;4061;51.360;7.340;2023-07-31T10:59:47;1.60;;;0.80;;
8036;SDS011;4061;51.360;7.340;2023-07-31T11:02:24;2.58;;;0.80;;
8036;SDS011;4061;51.360;7.340;2023-07-31T11:05:05;0.85;;;0.85;;
8036;SDS011;4061;51.360;7.340;2023-07-31T11:07:46;1.02;;;0.85;;
8036;SDS011;4061;51.360;7.340;2023-07-31T11:10:16;2.90;;;0.80;;
8036;SDS011;4061;51.360;7.340;2023-07-31T11:12:44;1.27;;;1.17;;
8036;SDS011;4061;51.360;7.340;2023-07-31T11:15:12;3.20;;;1.05;;
8036;SDS011;4061;51.360;7.340;2023-07-31T11:17:39;1.75;;;1.20;;
8036;SDS011;4061;51.360;7.340;2023-07-31T11:20:06;3.45;;;1.50;;
8036;SDS011;4061;51.360;7.340;2023-07-31T11:22:34;2.80;;;1.73;;
8036;SDS011;4061;51.360;7.340;2023-07-31T11:25:01;1.95;;;1.55;;
8036;SDS011;4061;51.360;7.340;2023-07-31T11:27:30;4.55;;;1.83;;
8036;SDS011;4061;51.360;7.340;2023-07-31T11:30:00;3.20;;;1.98;;
8036;SDS011;4061;51.360;7.340;2023-07-31T11:32:28;3.55;;;1.90;;
8036;SDS011;4061;51.360;7.340;2023-07-31T11:34:55;4.90;;;1.80;;
8036;SDS011;4061;51.360;7.340;2023-07-31T11:37:22;2.25;;;2.08;;
8036;SDS011;4061;51.360;7.340;2023-07-31T11:39:59;3.13;;;1.50;;
8036;SDS011;4061;51.360;7.340;2023-07-31T11:42:26;6.82;;;2.00;;
8036;SDS011;4061;51.360;7.340;2023-07-31T11:44:56;6.43;;;2.00;;
8036;SDS011;4061;51.360;7.340;2023-07-31T11:47:23;1.98;;;1.60;;
8036;SDS011;4061;51.360;7.340;2023-07-31T11:49:52;2.67;;;1.70;;
8036;SDS011;4061;51.360;7.340;2023-07-31T11:52:20;2.15;;;1.98;;
8036;SDS011;4061;51.360;7.340;2023-07-31T11:54:48;2.55;;;1.67;;
8036;SDS011;4061;51.360;7.340;2023-07-31T11:57:15;3.47;;;1.95;;
8036;SDS011;4061;51.360;7.340;2023-07-31T11:59:42;4.88;;;1.88;;
8036;SDS011;4061;51.360;7.340;2023-07-31T12:02:11;8.98;;;1.35;;
8036;SDS011;4061;51.360;7.340;2023-07-31T12:04:38;3.92;;;1.95;;
8036;SDS011;4061;51.360;7.340;2023-07-31T12:07:05;1.50;;;1.40;;
8036;SDS011;4061;51.360;7.340;2023-07-31T12:09:32;2.88;;;1.40;;
8036;SDS011;4061;51.360;7.340;2023-07-31T12:12:08;2.03;;;1.50;;
8036;SDS011;4061;51.360;7.340;2023-07-31T12:14:35;1.40;;;1.30;;
8036;SDS011;4061;51.360;7.340;2023-07-31T12:17:08;4.35;;;1.42;;
8036;SDS011;4061;51.360;7.340;2023-07-31T12:19:36;4.78;;;1.45;;
8036;SDS011;4061;51.360;7.340;2023-07-31T12:22:10;3.40;;;1.38;;
8036;SDS011;4061;51.360;7.340;2023-07-31T12:24:38;1.65;;;1.00;;
8036;SDS011;4061;51.360;7.340;2023-07-31T12:27:08;2.42;;;1.52;;
8036;SDS011;4061;51.360;7.340;2023-07-31T12:29:35;3.03;;;1.30;;
8036;SDS011;4061;51.360;7.340;2023-07-31T12:32:03;1.10;;;1.10;;
8036;SDS011;4061;51.360;7.340;2023-07-31T12:34:31;0.90;;;0.90;;
8036;SDS011;4061;51.360;7.340;2023-07-31T12:36:59;1.02;;;0.95;;
8036;SDS011;4061;51.360;7.340;2023-07-31T12:39:26;0.88;;;0.75;;
8036;SDS011;4061;51.360;7.340;2023-07-31T12:41:53;2.05;;;1.00;;
8036;SDS011;4061;51.360;7.340;2023-07-31T12:44:20;1.23;;;0.80;;
8036;SDS011;4061;51.360;7.340;2023-07-31T12:46:47;1.95;;;0.90;;
8036;SDS011;4061;51.360;7.340;2023-07-31T12:49:14;1.92;;;1.15;;
8036;SDS011;4061;51.360;7.340;2023-07-31T12:51:41;1.30;;;0.80;;
8036;SDS011;4061;51.360;7.340;2023-07-31T12:54:10;0.90;;;0.90;;
8036;SDS011;4061;51.360;7.340;2023-07-31T12:56:37;2.03;;;0.88;;
8036;SDS011;4061;51.360;7.340;2023-07-31T12:59:04;2.72;;;1.00;;
8036;SDS011;4061;51.360;7.340;2023-07-31T13:01:31;1.13;;;0.80;;
8036;SDS011;4061;51.360;7.340;2023-07-31T13:03:58;1.33;;;0.82;;
8036;SDS011;4061;51.360;7.340;2023-07-31T13:06:25;0.65;;;0.65;;
8036;SDS011;4061;51.360;7.340;2023-07-31T13:08:52;0.80;;;0.80;;
8036;SDS011;4061;51.360;7.340;2023-07-31T13:11:20;1.42;;;1.00;;
8036;SDS011;4061;51.360;7.340;2023-07-31T13:13:47;0.75;;;0.75;;
8036;SDS011;4061;51.360;7.340;2023-07-31T13:16:15;0.63;;;0.63;;
8036;SDS011;4061;51.360;7.340;2023-07-31T13:18:42;3.75;;;1.10;;
8036;SDS011;4061;51.360;7.340;2023-07-31T13:21:09;1.17;;;1.00;;
8036;SDS011;4061;51.360;7.340;2023-07-31T13:23:36;0.82;;;0.82;;
8036;SDS011;4061;51.360;7.340;2023-07-31T13:26:03;2.40;;;0.70;;
8036;SDS011;4061;51.360;7.340;2023-07-31T13:28:31;1.70;;;0.90;;
8036;SDS011;4061;51.360;7.340;2023-07-31T13:30:58;1.17;;;1.10;;
8036;SDS011;4061;51.360;7.340;2023-07-31T13:33:25;3.65;;;1.13;;
8036;SDS011;4061;51.360;7.340;2023-07-31T13:35:52;0.85;;;0.82;;
8036;SDS011;4061;51.360;7.340;2023-07-31T13:38:19;3.55;;;1.30;;
8036;SDS011;4061;51.360;7.340;2023-07-31T13:40:46;0.88;;;0.70;;
8036;SDS011;4061;51.360;7.340;2023-07-31T13:43:13;2.65;;;1.00;;
8036;SDS011;4061;51.360;7.340;2023-07-31T13:45:42;4.30;;;1.50;;
8036;SDS011;4061;51.360;7.340;2023-07-31T13:48:09;0.95;;;0.95;;
8036;SDS011;4061;51.360;7.340;2023-07-31T13:50:36;3.45;;;0.77;;
8036;SDS011;4061;51.360;7.340;2023-07-31T13:53:03;1.70;;;1.20;;
8036;SDS011;4061;51.360;7.340;2023-07-31T13:55:30;3.28;;;1.70;;
8036;SDS011;4061;51.360;7.340;2023-07-31T13:57:57;3.20;;;1.73;;
8036;SDS011;4061;51.360;7.340;2023-07-31T14:00:24;4.43;;;2.03;;
8036;SDS011;4061;51.360;7.340;2023-07-31T14:02:55;3.58;;;2.45;;
8036;SDS011;4061;51.360;7.340;2023-07-31T14:05:22;2.78;;;1.85;;
8036;SDS011;4061;51.360;7.340;2023-07-31T14:07:49;2.45;;;1.20;;
8036;SDS011;4061;51.360;7.340;2023-07-31T14:10:16;1.55;;;1.45;;
8036;SDS011;4061;51.360;7.340;2023-07-31T14:12:43;1.63;;;1.52;;
8036;SDS011;4061;51.360;7.340;2023-07-31T14:15:10;4.82;;;1.90;;
8036;SDS011;4061;51.360;7.340;2023-07-31T14:17:37;5.10;;;1.95;;
8036;SDS011;4061;51.360;7.340;2023-07-31T14:20:06;7.28;;;1.80;;
8036;SDS011;4061;51.360;7.340;2023-07-31T14:22:34;1.98;;;1.70;;
8036;SDS011;4061;51.360;7.340;2023-07-31T14:25:02;3.42;;;2.17;;
8036;SDS011;4061;51.360;7.340;2023-07-31T14:27:30;2.17;;;1.50;;
8036;SDS011;4061;51.360;7.340;2023-07-31T14:29:57;3.45;;;1.55;;
8036;SDS011;4061;51.360;7.340;2023-07-31T14:32:24;3.05;;;2.17;;
8036;SDS011;4061;51.360;7.340;2023-07-31T14:34:51;6.75;;;1.75;;
8036;SDS011;4061;51.360;7.340;2023-07-31T14:37:20;6.35;;;1.75;;
8036;SDS011;4061;51.360;7.340;2023-07-31T14:39:48;2.88;;;1.77;;
8036;SDS011;4061;51.360;7.340;2023-07-31T14:42:15;4.38;;;1.40;;
8036;SDS011;4061;51.360;7.340;2023-07-31T14:44:44;7.72;;;1.73;;
8036;SDS011;4061;51.360;7.340;2023-07-31T14:47:12;4.53;;;1.85;;
8036;SDS011;4061;51.360;7.340;2023-07-31T14:49:39;2.10;;;1.58;;
8036;SDS011;4061;51.360;7.340;2023-07-31T14:52:06;2.05;;;1.40;;
8036;SDS011;4061;51.360;7.340;2023-07-31T14:54:34;1.45;;;1.35;;
8036;SDS011;4061;51.360;7.340;2023-07-31T14:57:02;2.05;;;1.20;;
8036;SDS011;4061;51.360;7.340;2023-07-31T14:59:29;1.80;;;1.48;;
8036;SDS011;4061;51.360;7.340;2023-07-31T15:01:56;2.75;;;1.48;;
8036;SDS011;4061;51.360;7.340;2023-07-31T15:04:23;11.10;;;3.38;;
8036;SDS011;4061;51.360;7.340;2023-07-31T15:06:51;2.33;;;1.33;;
8036;SDS011;4061;51.360;7.340;2023-07-31T15:09:18;1.95;;;1.38;;
8036;SDS011;4061;51.360;7.340;2023-07-31T15:11:47;7.07;;;1.90;;
8036;SDS011;4061;51.360;7.340;2023-07-31T15:14:14;2.65;;;1.50;;
8036;SDS011;4061;51.360;7.340;2023-07-31T15:16:41;2.22;;;1.45;;
8036;SDS011;4061;51.360;7.340;2023-07-31T15:19:08;1.73;;;1.63;;
8036;SDS011;4061;51.360;7.340;2023-07-31T15:21:36;1.88;;;1.25;;